Decoded Metar for SCCI (PUNTA ARENAS in CHILE) (IATA:PUQ) | Meteo·Mobile Aviation Weather
aviador You're here:

SCCI Decoded Metar

PUNTA ARENAS in CHILE
Report Time2019-07-24 05:00:00
UTC Time2019-07-24 05:17:56
Flight Rules ifr IFR
Wind340° at 10 kt
W.Decomp.*RWY 30: 8.9 kt HW 4.5 kt RCW
RWY 01: 7.3 kt HW 6.8 kt LCW
RWY 25: 2.2 kt HW 9.7 kt RCW
Visibility4000 m
Phenomena:Light Snow
Clouds:Scattered 037 Hf
Overcast 053 Hf
Expected CloudBase > 800 ft AGL from Temp-Dew spread
Ceiling5,300 ft
Temp01°C (ISA -14)
Dew Point-1°C (87% RH)
AAT-4.7°C
QNH1015 hPa
Density Alt-1,549 ft
Elevation121 ft
Report Wrong Elevation
Raw Report
SCCI 240500Z 34010KT 4000 -SN SCT037 OVC053 01/M01 Q1015 NOSIG=

Extra information for SCCI:More info

Metar Taf Metar & Taf Last 4 Metars F.Rules Stats Wind Profile Meteogram Temp Stats Airport Information Weather charts Add Link Nearby VenuesMetar ALERT Operation Metar Decoded Social comments